sensor_id;sensor_type;location;lat;lon;timestamp;temperature;humidity
22526;DHT22;11429;50.842;4.386;2022-12-18T00:00:43;-1.50;99.90
22526;DHT22;11429;50.842;4.386;2022-12-18T00:03:10;-1.60;99.90
22526;DHT22;11429;50.842;4.386;2022-12-18T00:05:36;-1.50;99.90
22526;DHT22;11429;50.842;4.386;2022-12-18T00:08:02;-1.50;99.90
22526;DHT22;11429;50.842;4.386;2022-12-18T00:10:28;-1.60;99.90
22526;DHT22;11429;50.842;4.386;2022-12-18T00:12:54;-1.60;99.90
22526;DHT22;11429;50.842;4.386;2022-12-18T00:15:20;-1.70;99.90
22526;DHT22;11429;50.842;4.386;2022-12-18T00:17:45;-1.60;99.90
22526;DHT22;11429;50.842;4.386;2022-12-18T00:20:11;-1.60;99.90
22526;DHT22;11429;50.842;4.386;2022-12-18T00:22:37;-1.60;99.90
22526;DHT22;11429;50.842;4.386;2022-12-18T00:25:02;-1.70;99.90
22526;DHT22;11429;50.842;4.386;2022-12-18T00:27:28;-1.70;99.90
22526;DHT22;11429;50.842;4.386;2022-12-18T00:29:54;-1.60;99.90
22526;DHT22;11429;50.842;4.386;2022-12-18T00:32:19;-1.70;99.90
22526;DHT22;11429;50.842;4.386;2022-12-18T00:34:45;-1.80;99.90
22526;DHT22;11429;50.842;4.386;2022-12-18T00:37:11;-1.80;99.90
22526;DHT22;11429;50.842;4.386;2022-12-18T00:39:36;-1.80;99.90
22526;DHT22;11429;50.842;4.386;2022-12-18T00:42:02;-1.70;99.90
22526;DHT22;11429;50.842;4.386;2022-12-18T00:44:46;-1.80;99.90
22526;DHT22;11429;50.842;4.386;2022-12-18T00:47:12;-1.60;99.90
22526;DHT22;11429;50.842;4.386;2022-12-18T00:49:38;-1.80;99.90
22526;DHT22;11429;50.842;4.386;2022-12-18T00:52:03;-1.80;99.90
22526;DHT22;11429;50.842;4.386;2022-12-18T00:54:29;-1.80;99.90
22526;DHT22;11429;50.842;4.386;2022-12-18T00:56:55;-1.70;99.90
22526;DHT22;11429;50.842;4.386;2022-12-18T00:59:21;-1.70;99.90
22526;DHT22;11429;50.842;4.386;2022-12-18T01:01:47;-1.60;99.90
22526;DHT22;11429;50.842;4.386;2022-12-18T01:04:13;-1.60;99.90
22526;DHT22;11429;50.842;4.386;2022-12-18T01:06:39;-1.70;99.90
22526;DHT22;11429;50.842;4.386;2022-12-18T01:09:05;-1.70;99.90
22526;DHT22;11429;50.842;4.386;2022-12-18T01:11:31;-1.70;99.90
22526;DHT22;11429;50.842;4.386;2022-12-18T01:13:56;-1.70;99.90
22526;DHT22;11429;50.842;4.386;2022-12-18T01:16:22;-1.70;99.90
22526;DHT22;11429;50.842;4.386;2022-12-18T01:18:54;-1.60;99.90
22526;DHT22;11429;50.842;4.386;2022-12-18T01:21:20;-1.60;99.90
22526;DHT22;11429;50.842;4.386;2022-12-18T01:23:46;-1.60;99.90
22526;DHT22;11429;50.842;4.386;2022-12-18T01:26:15;-1.60;99.90
22526;DHT22;11429;50.842;4.386;2022-12-18T01:28:42;-1.60;99.90
22526;DHT22;11429;50.842;4.386;2022-12-18T01:33:42;-1.70;99.90
22526;DHT22;11429;50.842;4.386;2022-12-18T01:36:11;-1.80;99.90
22526;DHT22;11429;50.842;4.386;2022-12-18T01:38:39;-1.80;99.90
22526;DHT22;11429;50.842;4.386;2022-12-18T01:41:05;-1.70;99.90
22526;DHT22;11429;50.842;4.386;2022-12-18T01:43:52;-1.70;99.90
22526;DHT22;11429;50.842;4.386;2022-12-18T01:46:20;-1.80;99.90
22526;DHT22;11429;50.842;4.386;2022-12-18T01:48:50;-2.00;99.90
22526;DHT22;11429;50.842;4.386;2022-12-18T01:51:17;-1.80;99.90
22526;DHT22;11429;50.842;4.386;2022-12-18T01:53:43;-1.80;99.90
22526;DHT22;11429;50.842;4.386;2022-12-18T01:56:14;-1.90;99.90
22526;DHT22;11429;50.842;4.386;2022-12-18T01:59:03;-1.80;99.90
22526;DHT22;11429;50.842;4.386;2022-12-18T02:01:31;-1.80;99.90
22526;DHT22;11429;50.842;4.386;2022-12-18T02:04:26;-1.80;99.90
22526;DHT22;11429;50.842;4.386;2022-12-18T02:07:17;-1.80;99.90
22526;DHT22;11429;50.842;4.386;2022-12-18T02:10:09;-1.80;99.90
22526;DHT22;11429;50.842;4.386;2022-12-18T02:18:35;-1.80;99.90
22526;DHT22;11429;50.842;4.386;2022-12-18T02:27:05;-1.90;99.90
22526;DHT22;11429;50.842;4.386;2022-12-18T02:29:51;-1.90;99.90
22526;DHT22;11429;50.842;4.386;2022-12-18T02:32:24;-1.90;99.90
22526;DHT22;11429;50.842;4.386;2022-12-18T02:34:51;-1.90;99.90
22526;DHT22;11429;50.842;4.386;2022-12-18T02:37:18;-1.90;99.90
22526;DHT22;11429;50.842;4.386;2022-12-18T02:39:48;-1.90;99.90
22526;DHT22;11429;50.842;4.386;2022-12-18T02:42:16;-1.90;99.90
22526;DHT22;11429;50.842;4.386;2022-12-18T02:44:43;-1.70;99.90
22526;DHT22;11429;50.842;4.386;2022-12-18T02:47:14;-1.70;99.90
22526;DHT22;11429;50.842;4.386;2022-12-18T02:52:45;-2.00;99.90
22526;DHT22;11429;50.842;4.386;2022-12-18T03:00:41;-2.20;99.90
22526;DHT22;11429;50.842;4.386;2022-12-18T03:03:18;-2.20;99.90
22526;DHT22;11429;50.842;4.386;2022-12-18T03:06:01;-2.10;99.90
22526;DHT22;11429;50.842;4.386;2022-12-18T03:08:32;-2.10;99.90
22526;DHT22;11429;50.842;4.386;2022-12-18T03:11:07;-1.80;99.90
22526;DHT22;11429;50.842;4.386;2022-12-18T03:13:37;-1.90;99.90
22526;DHT22;11429;50.842;4.386;2022-12-18T03:16:06;-2.20;99.90
22526;DHT22;11429;50.842;4.386;2022-12-18T03:18:38;-2.30;99.90
22526;DHT22;11429;50.842;4.386;2022-12-18T03:21:06;-2.30;99.90
22526;DHT22;11429;50.842;4.386;2022-12-18T03:23:52;-2.30;99.90
22526;DHT22;11429;50.842;4.386;2022-12-18T03:26:22;-2.10;99.90
22526;DHT22;11429;50.842;4.386;2022-12-18T03:28:53;-2.00;99.90
22526;DHT22;11429;50.842;4.386;2022-12-18T03:31:22;-2.00;99.90
22526;DHT22;11429;50.842;4.386;2022-12-18T03:33:57;-1.90;99.90
22526;DHT22;11429;50.842;4.386;2022-12-18T03:36:24;-2.20;99.90
22526;DHT22;11429;50.842;4.386;2022-12-18T03:38:51;-2.20;99.90
22526;DHT22;11429;50.842;4.386;2022-12-18T03:41:53;-2.10;99.90
22526;DHT22;11429;50.842;4.386;2022-12-18T03:47:31;-2.30;99.90
22526;DHT22;11429;50.842;4.386;2022-12-18T03:52:41;-2.50;99.90
22526;DHT22;11429;50.842;4.386;2022-12-18T03:55:09;-2.40;99.90
22526;DHT22;11429;50.842;4.386;2022-12-18T03:57:35;-2.40;99.90
22526;DHT22;11429;50.842;4.386;2022-12-18T04:00:08;-2.20;99.90
22526;DHT22;11429;50.842;4.386;2022-12-18T04:02:38;-1.90;99.90
22526;DHT22;11429;50.842;4.386;2022-12-18T04:05:06;-1.80;99.90
22526;DHT22;11429;50.842;4.386;2022-12-18T04:07:35;-1.90;99.90
22526;DHT22;11429;50.842;4.386;2022-12-18T04:10:03;-1.80;99.90
22526;DHT22;11429;50.842;4.386;2022-12-18T04:12:30;-1.90;99.90
22526;DHT22;11429;50.842;4.386;2022-12-18T04:14:56;-2.10;99.90
22526;DHT22;11429;50.842;4.386;2022-12-18T04:17:22;-2.20;99.90
22526;DHT22;11429;50.842;4.386;2022-12-18T04:19:48;-2.20;99.90
22526;DHT22;11429;50.842;4.386;2022-12-18T04:22:14;-2.40;99.90
22526;DHT22;11429;50.842;4.386;2022-12-18T04:24:40;-2.30;99.90
22526;DHT22;11429;50.842;4.386;2022-12-18T04:27:11;-2.30;99.90
22526;DHT22;11429;50.842;4.386;2022-12-18T04:29:37;-2.30;99.90
22526;DHT22;11429;50.842;4.386;2022-12-18T04:32:03;-2.30;99.90
22526;DHT22;11429;50.842;4.386;2022-12-18T04:34:47;-2.40;99.90
22526;DHT22;11429;50.842;4.386;2022-12-18T04:37:13;-2.40;99.90
22526;DHT22;11429;50.842;4.386;2022-12-18T04:39:39;-2.40;99.90
22526;DHT22;11429;50.842;4.386;2022-12-18T04:42:04;-2.40;99.90
22526;DHT22;11429;50.842;4.386;2022-12-18T04:44:34;-2.40;99.90
22526;DHT22;11429;50.842;4.386;2022-12-18T04:47:02;-2.50;99.90
22526;DHT22;11429;50.842;4.386;2022-12-18T04:49:28;-2.70;99.90
22526;DHT22;11429;50.842;4.386;2022-12-18T04:51:54;-2.80;99.90
22526;DHT22;11429;50.842;4.386;2022-12-18T04:54:19;-2.90;99.90
22526;DHT22;11429;50.842;4.386;2022-12-18T04:56:46;-2.90;99.90
22526;DHT22;11429;50.842;4.386;2022-12-18T04:59:12;-3.00;99.90
22526;DHT22;11429;50.842;4.386;2022-12-18T05:01:38;-3.10;99.90
22526;DHT22;11429;50.842;4.386;2022-12-18T05:04:04;-3.10;99.90
22526;DHT22;11429;50.842;4.386;2022-12-18T05:09:40;-3.20;99.90
22526;DHT22;11429;50.842;4.386;2022-12-18T05:12:06;-3.30;99.90
22526;DHT22;11429;50.842;4.386;2022-12-18T05:14:32;-3.30;99.90
22526;DHT22;11429;50.842;4.386;2022-12-18T05:16:57;-3.30;99.90
22526;DHT22;11429;50.842;4.386;2022-12-18T05:19:26;-3.10;99.90
22526;DHT22;11429;50.842;4.386;2022-12-18T05:21:55;-3.10;99.90
22526;DHT22;11429;50.842;4.386;2022-12-18T05:24:21;-3.20;99.90
22526;DHT22;11429;50.842;4.386;2022-12-18T05:26:46;-3.30;99.90
22526;DHT22;11429;50.842;4.386;2022-12-18T05:29:12;-3.20;99.90
22526;DHT22;11429;50.842;4.386;2022-12-18T05:31:38;-3.00;99.90
22526;DHT22;11429;50.842;4.386;2022-12-18T05:34:07;-3.00;99.90
22526;DHT22;11429;50.842;4.386;2022-12-18T05:36:33;-2.90;99.90
22526;DHT22;11429;50.842;4.386;2022-12-18T05:39:24;-2.70;99.90
22526;DHT22;11429;50.842;4.386;2022-12-18T05:41:59;-2.60;99.90
22526;DHT22;11429;50.842;4.386;2022-12-18T05:44:28;-2.50;99.90
22526;DHT22;11429;50.842;4.386;2022-12-18T05:46:53;-2.70;99.90
22526;DHT22;11429;50.842;4.386;2022-12-18T05:49:20;-2.80;99.90
22526;DHT22;11429;50.842;4.386;2022-12-18T05:51:46;-2.80;99.90
22526;DHT22;11429;50.842;4.386;2022-12-18T05:54:11;-2.90;99.90
22526;DHT22;11429;50.842;4.386;2022-12-18T06:00:05;-2.90;99.90
22526;DHT22;11429;50.842;4.386;2022-12-18T06:02:32;-2.90;99.90
22526;DHT22;11429;50.842;4.386;2022-12-18T06:04:57;-2.90;99.90
22526;DHT22;11429;50.842;4.386;2022-12-18T06:07:23;-2.90;99.90
22526;DHT22;11429;50.842;4.386;2022-12-18T06:09:49;-3.00;99.90
22526;DHT22;11429;50.842;4.386;2022-12-18T06:12:14;-3.00;99.90
22526;DHT22;11429;50.842;4.386;2022-12-18T06:14:40;-2.90;99.90
22526;DHT22;11429;50.842;4.386;2022-12-18T06:17:06;-2.80;99.90
22526;DHT22;11429;50.842;4.386;2022-12-18T06:19:31;-2.80;99.90
22526;DHT22;11429;50.842;4.386;2022-12-18T06:21:57;-3.00;99.90
22526;DHT22;11429;50.842;4.386;2022-12-18T06:24:24;-3.10;99.90
22526;DHT22;11429;50.842;4.386;2022-12-18T06:26:50;-3.10;99.90
22526;DHT22;11429;50.842;4.386;2022-12-18T06:29:16;-2.80;99.90
22526;DHT22;11429;50.842;4.386;2022-12-18T06:31:42;-2.80;99.90
22526;DHT22;11429;50.842;4.386;2022-12-18T06:34:08;-2.70;99.90
22526;DHT22;11429;50.842;4.386;2022-12-18T06:36:33;-2.70;99.90
22526;DHT22;11429;50.842;4.386;2022-12-18T06:38:59;-2.80;99.90
22526;DHT22;11429;50.842;4.386;2022-12-18T06:41:25;-2.70;99.90
22526;DHT22;11429;50.842;4.386;2022-12-18T06:43:50;-2.60;99.90
22526;DHT22;11429;50.842;4.386;2022-12-18T06:46:16;-2.40;99.90
22526;DHT22;11429;50.842;4.386;2022-12-18T06:48:42;-2.40;99.90
22526;DHT22;11429;50.842;4.386;2022-12-18T06:51:08;-2.50;99.90
22526;DHT22;11429;50.842;4.386;2022-12-18T06:53:34;-2.50;99.90
22526;DHT22;11429;50.842;4.386;2022-12-18T06:56:01;-2.40;99.90
22526;DHT22;11429;50.842;4.386;2022-12-18T06:58:28;-2.40;99.90
22526;DHT22;11429;50.842;4.386;2022-12-18T07:00:53;-2.50;99.90
22526;DHT22;11429;50.842;4.386;2022-12-18T07:03:24;-2.40;99.90
22526;DHT22;11429;50.842;4.386;2022-12-18T07:05:49;-2.30;99.90
22526;DHT22;11429;50.842;4.386;2022-12-18T07:08:15;-2.40;99.90
22526;DHT22;11429;50.842;4.386;2022-12-18T07:10:42;-2.40;99.90
22526;DHT22;11429;50.842;4.386;2022-12-18T07:13:07;-2.50;99.90
22526;DHT22;11429;50.842;4.386;2022-12-18T07:15:33;-2.50;99.90
22526;DHT22;11429;50.842;4.386;2022-12-18T07:18:00;-2.50;99.90
22526;DHT22;11429;50.842;4.386;2022-12-18T07:20:26;-2.60;99.90
22526;DHT22;11429;50.842;4.386;2022-12-18T07:22:51;-2.60;99.90
22526;DHT22;11429;50.842;4.386;2022-12-18T07:25:17;-2.40;99.90
22526;DHT22;11429;50.842;4.386;2022-12-18T07:27:42;-2.40;99.90
22526;DHT22;11429;50.842;4.386;2022-12-18T07:30:09;-2.20;99.90
22526;DHT22;11429;50.842;4.386;2022-12-18T07:32:35;-2.10;99.90
22526;DHT22;11429;50.842;4.386;2022-12-18T07:35:00;-2.30;99.90
22526;DHT22;11429;50.842;4.386;2022-12-18T07:37:26;-2.40;99.90
22526;DHT22;11429;50.842;4.386;2022-12-18T07:39:52;-2.50;99.90
22526;DHT22;11429;50.842;4.386;2022-12-18T07:42:17;-2.40;99.90
22526;DHT22;11429;50.842;4.386;2022-12-18T07:44:56;-2.40;99.90
22526;DHT22;11429;50.842;4.386;2022-12-18T07:47:21;-2.50;99.90
22526;DHT22;11429;50.842;4.386;2022-12-18T07:49:47;-2.50;99.90
22526;DHT22;11429;50.842;4.386;2022-12-18T07:52:13;-2.50;99.90
22526;DHT22;11429;50.842;4.386;2022-12-18T07:54:39;-2.40;99.90
22526;DHT22;11429;50.842;4.386;2022-12-18T07:57:06;-2.50;99.90
22526;DHT22;11429;50.842;4.386;2022-12-18T07:59:31;-2.60;99.90
22526;DHT22;11429;50.842;4.386;2022-12-18T08:01:57;-2.50;99.90
22526;DHT22;11429;50.842;4.386;2022-12-18T08:04:24;-2.40;99.90
22526;DHT22;11429;50.842;4.386;2022-12-18T08:06:50;-2.40;99.90
22526;DHT22;11429;50.842;4.386;2022-12-18T08:09:16;-2.30;99.90
22526;DHT22;11429;50.842;4.386;2022-12-18T08:11:42;-2.40;99.90
22526;DHT22;11429;50.842;4.386;2022-12-18T08:14:08;-2.40;99.90
22526;DHT22;11429;50.842;4.386;2022-12-18T08:16:35;-2.20;99.90
22526;DHT22;11429;50.842;4.386;2022-12-18T08:19:02;-2.10;99.90
22526;DHT22;11429;50.842;4.386;2022-12-18T08:21:29;-2.10;99.90
22526;DHT22;11429;50.842;4.386;2022-12-18T08:23:59;-2.00;99.90
22526;DHT22;11429;50.842;4.386;2022-12-18T08:26:27;-1.90;99.90
22526;DHT22;11429;50.842;4.386;2022-12-18T08:28:55;-1.90;99.90
22526;DHT22;11429;50.842;4.386;2022-12-18T08:31:21;-1.90;99.90
22526;DHT22;11429;50.842;4.386;2022-12-18T08:33:51;-1.80;99.90
22526;DHT22;11429;50.842;4.386;2022-12-18T08:36:18;-1.80;99.90
22526;DHT22;11429;50.842;4.386;2022-12-18T08:38:44;-1.70;99.90
22526;DHT22;11429;50.842;4.386;2022-12-18T08:41:13;-1.40;99.90
22526;DHT22;11429;50.842;4.386;2022-12-18T08:43:39;-1.10;99.90
22526;DHT22;11429;50.842;4.386;2022-12-18T08:46:27;-1.00;99.90
22526;DHT22;11429;50.842;4.386;2022-12-18T08:48:54;-1.10;99.90
22526;DHT22;11429;50.842;4.386;2022-12-18T08:51:25;-1.20;99.90
22526;DHT22;11429;50.842;4.386;2022-12-18T08:53:51;-1.20;99.90
22526;DHT22;11429;50.842;4.386;2022-12-18T08:56:17;-1.10;99.90
22526;DHT22;11429;50.842;4.386;2022-12-18T08:58:43;-0.90;99.90
22526;DHT22;11429;50.842;4.386;2022-12-18T09:01:11;-0.90;99.90
22526;DHT22;11429;50.842;4.386;2022-12-18T09:03:37;-1.10;99.90
22526;DHT22;11429;50.842;4.386;2022-12-18T09:06:04;-1.10;99.90
22526;DHT22;11429;50.842;4.386;2022-12-18T09:08:30;-1.20;99.90
22526;DHT22;11429;50.842;4.386;2022-12-18T09:10:56;-1.10;99.90
22526;DHT22;11429;50.842;4.386;2022-12-18T09:13:22;-1.10;99.90
22526;DHT22;11429;50.842;4.386;2022-12-18T09:15:52;-1.10;99.90
22526;DHT22;11429;50.842;4.386;2022-12-18T09:18:20;-1.20;99.90
22526;DHT22;11429;50.842;4.386;2022-12-18T09:20:47;-1.10;99.90
22526;DHT22;11429;50.842;4.386;2022-12-18T09:23:13;-0.90;99.90
22526;DHT22;11429;50.842;4.386;2022-12-18T09:25:39;-0.90;99.90
22526;DHT22;11429;50.842;4.386;2022-12-18T09:28:13;-0.60;99.90
22526;DHT22;11429;50.842;4.386;2022-12-18T09:30:42;-0.60;99.90
22526;DHT22;11429;50.842;4.386;2022-12-18T09:33:08;-0.70;99.90
22526;DHT22;11429;50.842;4.386;2022-12-18T09:35:37;-0.60;99.90
22526;DHT22;11429;50.842;4.386;2022-12-18T09:38:04;-0.60;99.90
22526;DHT22;11429;50.842;4.386;2022-12-18T09:40:39;-0.50;99.90
22526;DHT22;11429;50.842;4.386;2022-12-18T09:43:10;-0.60;99.90
22526;DHT22;11429;50.842;4.386;2022-12-18T09:45:44;-0.60;99.90
22526;DHT22;11429;50.842;4.386;2022-12-18T09:48:28;-0.40;99.90
22526;DHT22;11429;50.842;4.386;2022-12-18T09:51:18;-0.50;99.90
22526;DHT22;11429;50.842;4.386;2022-12-18T09:53:50;-0.50;99.90
22526;DHT22;11429;50.842;4.386;2022-12-18T09:56:19;-0.50;99.90
22526;DHT22;11429;50.842;4.386;2022-12-18T09:59:01;-0.30;99.90
22526;DHT22;11429;50.842;4.386;2022-12-18T10:01:31;-0.30;99.90
22526;DHT22;11429;50.842;4.386;2022-12-18T10:03:57;-0.30;99.90
22526;DHT22;11429;50.842;4.386;2022-12-18T10:06:35;-0.30;99.90
22526;DHT22;11429;50.842;4.386;2022-12-18T10:09:17;-0.20;99.90
22526;DHT22;11429;50.842;4.386;2022-12-18T10:11:58;-0.20;99.90
22526;DHT22;11429;50.842;4.386;2022-12-18T10:14:43;0.00;99.90
22526;DHT22;11429;50.842;4.386;2022-12-18T10:28:12;-0.20;99.90
22526;DHT22;11429;50.842;4.386;2022-12-18T10:30:42;-0.10;99.90
22526;DHT22;11429;50.842;4.386;2022-12-18T10:33:21;-0.10;99.90
22526;DHT22;11429;50.842;4.386;2022-12-18T10:35:52;-0.10;99.90
22526;DHT22;11429;50.842;4.386;2022-12-18T10:43:25;0.10;99.90
22526;DHT22;11429;50.842;4.386;2022-12-18T10:46:03;0.20;99.90
22526;DHT22;11429;50.842;4.386;2022-12-18T10:48:32;0.30;99.90
22526;DHT22;11429;50.842;4.386;2022-12-18T10:51:00;0.30;99.90
22526;DHT22;11429;50.842;4.386;2022-12-18T10:53:28;0.30;99.90
22526;DHT22;11429;50.842;4.386;2022-12-18T10:55:57;0.40;99.90
22526;DHT22;11429;50.842;4.386;2022-12-18T10:58:32;0.40;99.90
22526;DHT22;11429;50.842;4.386;2022-12-18T11:01:16;0.50;99.90
22526;DHT22;11429;50.842;4.386;2022-12-18T11:03:44;0.40;99.90
22526;DHT22;11429;50.842;4.386;2022-12-18T11:06:15;0.50;99.90
22526;DHT22;11429;50.842;4.386;2022-12-18T11:08:44;0.50;99.90
22526;DHT22;11429;50.842;4.386;2022-12-18T11:11:23;0.60;99.90
22526;DHT22;11429;50.842;4.386;2022-12-18T11:16:28;0.60;99.90
22526;DHT22;11429;50.842;4.386;2022-12-18T11:21:41;0.60;99.90
22526;DHT22;11429;50.842;4.386;2022-12-18T11:24:39;0.70;99.90
22526;DHT22;11429;50.842;4.386;2022-12-18T11:27:06;0.90;99.90
22526;DHT22;11429;50.842;4.386;2022-12-18T11:29:41;0.80;99.90
22526;DHT22;11429;50.842;4.386;2022-12-18T11:32:46;0.90;99.90
22526;DHT22;11429;50.842;4.386;2022-12-18T11:35:21;1.00;99.90
22526;DHT22;11429;50.842;4.386;2022-12-18T11:37:55;1.10;99.90
22526;DHT22;11429;50.842;4.386;2022-12-18T11:40:38;1.10;99.90
22526;DHT22;11429;50.842;4.386;2022-12-18T11:43:25;1.10;99.90
22526;DHT22;11429;50.842;4.386;2022-12-18T11:45:53;1.20;99.90
22526;DHT22;11429;50.842;4.386;2022-12-18T11:48:50;1.10;99.90
22526;DHT22;11429;50.842;4.386;2022-12-18T11:51:27;1.20;99.90
22526;DHT22;11429;50.842;4.386;2022-12-18T11:53:54;1.20;99.90
22526;DHT22;11429;50.842;4.386;2022-12-18T11:59:07;1.30;99.90
22526;DHT22;11429;50.842;4.386;2022-12-18T12:10:28;1.30;99.90
22526;DHT22;11429;50.842;4.386;2022-12-18T12:13:26;1.30;99.90
22526;DHT22;11429;50.842;4.386;2022-12-18T12:21:46;1.40;99.90
22526;DHT22;11429;50.842;4.386;2022-12-18T12:24:39;1.50;99.90
22526;DHT22;11429;50.842;4.386;2022-12-18T12:32:49;1.50;99.90
22526;DHT22;11429;50.842;4.386;2022-12-18T12:40:32;1.60;99.90
22526;DHT22;11429;50.842;4.386;2022-12-18T12:45:50;1.70;99.90
22526;DHT22;11429;50.842;4.386;2022-12-18T12:51:08;1.70;99.90
22526;DHT22;11429;50.842;4.386;2022-12-18T12:53:36;1.70;99.90
22526;DHT22;11429;50.842;4.386;2022-12-18T12:56:04;1.70;99.90
22526;DHT22;11429;50.842;4.386;2022-12-18T13:03:49;1.70;99.90
22526;DHT22;11429;50.842;4.386;2022-12-18T13:09:08;1.60;99.90
22526;DHT22;11429;50.842;4.386;2022-12-18T13:11:47;1.60;99.90
22526;DHT22;11429;50.842;4.386;2022-12-18T13:14:40;1.60;99.90
22526;DHT22;11429;50.842;4.386;2022-12-18T13:19:44;1.70;99.90
22526;DHT22;11429;50.842;4.386;2022-12-18T13:25:02;1.80;99.90
22526;DHT22;11429;50.842;4.386;2022-12-18T13:38:38;1.70;99.90
22526;DHT22;11429;50.842;4.386;2022-12-18T13:41:10;1.70;99.90
22526;DHT22;11429;50.842;4.386;2022-12-18T13:43:48;1.70;99.90
22526;DHT22;11429;50.842;4.386;2022-12-18T13:46:46;1.70;99.90
22526;DHT22;11429;50.842;4.386;2022-12-18T13:51:48;1.70;99.90
22526;DHT22;11429;50.842;4.386;2022-12-18T13:54:36;1.60;99.90
22526;DHT22;11429;50.842;4.386;2022-12-18T13:57:22;1.60;99.90
22526;DHT22;11429;50.842;4.386;2022-12-18T13:59:51;1.60;99.90
22526;DHT22;11429;50.842;4.386;2022-12-18T14:02:21;1.50;99.90
22526;DHT22;11429;50.842;4.386;2022-12-18T14:04:49;1.50;99.90
22526;DHT22;11429;50.842;4.386;2022-12-18T14:07:26;1.50;99.90
22526;DHT22;11429;50.842;4.386;2022-12-18T14:09:59;1.50;99.90
22526;DHT22;11429;50.842;4.386;2022-12-18T14:12:32;1.50;99.90
22526;DHT22;11429;50.842;4.386;2022-12-18T14:18:00;1.60;99.90
22526;DHT22;11429;50.842;4.386;2022-12-18T14:20:32;1.60;99.90
22526;DHT22;11429;50.842;4.386;2022-12-18T14:22:58;1.60;99.90
22526;DHT22;11429;50.842;4.386;2022-12-18T14:25:29;1.50;99.90
22526;DHT22;11429;50.842;4.386;2022-12-18T14:30:41;1.60;99.90
22526;DHT22;11429;50.842;4.386;2022-12-18T14:33:23;1.60;99.90
22526;DHT22;11429;50.842;4.386;2022-12-18T14:36:03;1.70;99.90
22526;DHT22;11429;50.842;4.386;2022-12-18T14:38:38;1.60;99.90
22526;DHT22;11429;50.842;4.386;2022-12-18T14:41:10;1.60;99.90
22526;DHT22;11429;50.842;4.386;2022-12-18T14:43:41;1.60;99.90
22526;DHT22;11429;50.842;4.386;2022-12-18T14:46:36;1.60;99.90
22526;DHT22;11429;50.842;4.386;2022-12-18T14:49:14;1.70;99.90
22526;DHT22;11429;50.842;4.386;2022-12-18T14:51:59;1.70;99.90
22526;DHT22;11429;50.842;4.386;2022-12-18T14:54:28;1.60;99.90
22526;DHT22;11429;50.842;4.386;2022-12-18T14:57:06;1.60;99.90
22526;DHT22;11429;50.842;4.386;2022-12-18T14:59:40;1.60;99.90
22526;DHT22;11429;50.842;4.386;2022-12-18T15:02:22;1.60;99.90
22526;DHT22;11429;50.842;4.386;2022-12-18T15:05:03;1.70;99.90
22526;DHT22;11429;50.842;4.386;2022-12-18T15:07:43;1.60;99.90
22526;DHT22;11429;50.842;4.386;2022-12-18T15:10:17;1.60;99.90
22526;DHT22;11429;50.842;4.386;2022-12-18T15:20:27;1.60;99.90
22526;DHT22;11429;50.842;4.386;2022-12-18T15:22:55;1.70;99.90
22526;DHT22;11429;50.842;4.386;2022-12-18T15:25:42;1.60;99.90
22526;DHT22;11429;50.842;4.386;2022-12-18T15:33:42;1.70;99.90
22526;DHT22;11429;50.842;4.386;2022-12-18T15:36:16;1.70;99.90
22526;DHT22;11429;50.842;4.386;2022-12-18T15:38:50;1.60;99.90
22526;DHT22;11429;50.842;4.386;2022-12-18T15:41:22;1.70;99.90
22526;DHT22;11429;50.842;4.386;2022-12-18T15:43:51;1.60;99.90
22526;DHT22;11429;50.842;4.386;2022-12-18T15:48:48;1.60;99.90
22526;DHT22;11429;50.842;4.386;2022-12-18T15:51:32;1.60;99.90
22526;DHT22;11429;50.842;4.386;2022-12-18T15:54:00;1.60;99.90
22526;DHT22;11429;50.842;4.386;2022-12-18T15:56:26;1.60;99.90
22526;DHT22;11429;50.842;4.386;2022-12-18T15:59:16;1.50;99.90
22526;DHT22;11429;50.842;4.386;2022-12-18T16:01:44;1.60;99.90
22526;DHT22;11429;50.842;4.386;2022-12-18T16:04:12;1.70;99.90
22526;DHT22;11429;50.842;4.386;2022-12-18T16:06:40;1.70;99.90
22526;DHT22;11429;50.842;4.386;2022-12-18T16:09:11;1.70;99.90
22526;DHT22;11429;50.842;4.386;2022-12-18T16:11:39;1.70;99.90
22526;DHT22;11429;50.842;4.386;2022-12-18T16:16:40;1.70;99.90
22526;DHT22;11429;50.842;4.386;2022-12-18T16:19:10;1.70;99.90
22526;DHT22;11429;50.842;4.386;2022-12-18T16:21:35;1.70;99.90
22526;DHT22;11429;50.842;4.386;2022-12-18T16:24:01;1.70;99.90
22526;DHT22;11429;50.842;4.386;2022-12-18T16:26:27;1.60;99.90
22526;DHT22;11429;50.842;4.386;2022-12-18T16:28:53;1.70;99.90
22526;DHT22;11429;50.842;4.386;2022-12-18T16:31:19;1.80;99.90
22526;DHT22;11429;50.842;4.386;2022-12-18T16:33:46;1.80;99.90
22526;DHT22;11429;50.842;4.386;2022-12-18T16:36:12;1.80;99.90
22526;DHT22;11429;50.842;4.386;2022-12-18T16:38:37;1.80;99.90
22526;DHT22;11429;50.842;4.386;2022-12-18T16:41:17;1.90;99.90
22526;DHT22;11429;50.842;4.386;2022-12-18T16:44:02;1.80;99.90
22526;DHT22;11429;50.842;4.386;2022-12-18T16:46:29;1.90;99.90
22526;DHT22;11429;50.842;4.386;2022-12-18T16:48:57;1.90;99.90
22526;DHT22;11429;50.842;4.386;2022-12-18T16:51:24;1.90;99.90
22526;DHT22;11429;50.842;4.386;2022-12-18T16:53:49;1.90;99.90
22526;DHT22;11429;50.842;4.386;2022-12-18T16:56:15;1.90;99.90
22526;DHT22;11429;50.842;4.386;2022-12-18T16:58:42;1.90;99.90
22526;DHT22;11429;50.842;4.386;2022-12-18T17:01:11;2.00;99.90
22526;DHT22;11429;50.842;4.386;2022-12-18T17:03:37;2.00;99.90
22526;DHT22;11429;50.842;4.386;2022-12-18T17:06:04;2.00;99.90
22526;DHT22;11429;50.842;4.386;2022-12-18T17:08:30;2.10;99.90
22526;DHT22;11429;50.842;4.386;2022-12-18T17:11:07;2.10;99.90
22526;DHT22;11429;50.842;4.386;2022-12-18T17:13:33;2.10;99.90
22526;DHT22;11429;50.842;4.386;2022-12-18T17:16:03;2.10;99.90
22526;DHT22;11429;50.842;4.386;2022-12-18T17:18:29;2.10;99.90
22526;DHT22;11429;50.842;4.386;2022-12-18T17:21:04;2.10;99.90
22526;DHT22;11429;50.842;4.386;2022-12-18T17:23:40;2.10;99.90
22526;DHT22;11429;50.842;4.386;2022-12-18T17:26:06;2.10;99.90
22526;DHT22;11429;50.842;4.386;2022-12-18T17:28:33;2.20;99.90
22526;DHT22;11429;50.842;4.386;2022-12-18T17:30:59;2.20;99.90
22526;DHT22;11429;50.842;4.386;2022-12-18T17:33:31;2.30;99.90
22526;DHT22;11429;50.842;4.386;2022-12-18T17:35:58;2.30;99.90
22526;DHT22;11429;50.842;4.386;2022-12-18T17:38:24;2.30;99.90
22526;DHT22;11429;50.842;4.386;2022-12-18T17:40:50;2.20;99.90
22526;DHT22;11429;50.842;4.386;2022-12-18T17:43:15;2.20;99.90
22526;DHT22;11429;50.842;4.386;2022-12-18T17:45:41;2.10;99.90
22526;DHT22;11429;50.842;4.386;2022-12-18T17:48:07;2.10;99.90
22526;DHT22;11429;50.842;4.386;2022-12-18T17:50:34;2.20;99.90
22526;DHT22;11429;50.842;4.386;2022-12-18T17:53:03;2.20;99.90
22526;DHT22;11429;50.842;4.386;2022-12-18T17:55:30;2.20;99.90
22526;DHT22;11429;50.842;4.386;2022-12-18T17:57:55;2.10;99.90
22526;DHT22;11429;50.842;4.386;2022-12-18T18:00:21;2.00;99.90
22526;DHT22;11429;50.842;4.386;2022-12-18T18:02:47;2.10;99.90
22526;DHT22;11429;50.842;4.386;2022-12-18T18:05:13;1.90;99.90
22526;DHT22;11429;50.842;4.386;2022-12-18T18:07:39;1.90;99.90
22526;DHT22;11429;50.842;4.386;2022-12-18T18:10:06;1.90;99.90
22526;DHT22;11429;50.842;4.386;2022-12-18T18:12:32;1.90;99.90
22526;DHT22;11429;50.842;4.386;2022-12-18T18:15:17;1.90;99.90
22526;DHT22;11429;50.842;4.386;2022-12-18T18:17:43;1.90;99.90